createdAt,value
2019-05-25T00:00:19.640Z,1003.90
2019-05-25T00:01:19.584Z,1003.90
2019-05-25T00:02:19.536Z,1003.88
2019-05-25T00:03:19.498Z,1003.88
2019-05-25T00:04:19.436Z,1003.90
2019-05-25T00:05:19.379Z,1003.88
2019-05-25T00:06:19.328Z,1003.84
2019-05-25T00:07:19.278Z,1003.86
2019-05-25T00:08:19.249Z,1003.90
2019-05-25T00:09:19.184Z,1003.91
2019-05-25T00:10:19.127Z,1003.93
2019-05-25T00:11:19.075Z,1003.94
2019-05-25T00:12:19.023Z,1003.95
2019-05-25T00:13:19.001Z,1003.94
2019-05-25T00:14:18.922Z,1003.99
2019-05-25T00:15:18.874Z,1003.94
2019-05-25T00:16:18.823Z,1003.94
2019-05-25T00:17:18.775Z,1003.93
2019-05-25T00:18:18.743Z,1003.90
2019-05-25T00:19:18.669Z,1003.90
2019-05-25T00:20:18.621Z,1003.94
2019-05-25T00:21:18.569Z,1003.94
2019-05-25T00:22:18.510Z,1003.95
2019-05-25T00:23:18.491Z,1003.98
2019-05-25T00:24:18.415Z,1003.97
2019-05-25T00:25:18.369Z,1003.98
2019-05-25T00:26:18.315Z,1003.95
2019-05-25T00:27:18.261Z,1003.98
2019-05-25T00:28:18.239Z,1003.94
2019-05-25T00:29:18.164Z,1003.94
2019-05-25T00:30:18.109Z,1003.94
2019-05-25T00:31:18.060Z,1003.95
2019-05-25T00:32:18.011Z,1003.97
2019-05-25T00:33:17.981Z,1003.94
2019-05-25T00:34:17.909Z,1003.97
2019-05-25T00:35:17.854Z,1003.99
2019-05-25T00:36:17.803Z,1004.00
2019-05-25T00:37:17.752Z,1003.98
2019-05-25T00:38:17.734Z,1003.99
2019-05-25T00:39:17.651Z,1004.00
2019-05-25T00:40:17.597Z,1004.01
2019-05-25T00:41:17.546Z,1004.00
2019-05-25T00:42:17.495Z,1003.99
2019-05-25T00:43:17.470Z,1004.00
2019-05-25T00:44:17.391Z,1004.00
2019-05-25T00:45:17.340Z,1004.02
2019-05-25T00:46:17.290Z,1004.00
2019-05-25T00:47:17.239Z,1004.01
2019-05-25T00:48:17.211Z,1003.96
2019-05-25T00:49:17.142Z,1004.00
2019-05-25T00:50:17.089Z,1003.99
2019-05-25T00:51:17.041Z,1003.99
2019-05-25T00:52:16.987Z,1004.01
2019-05-25T00:53:16.963Z,1004.02
2019-05-25T00:54:27.422Z,1004.03
2019-05-25T00:55:16.831Z,1003.99
2019-05-25T00:56:16.780Z,1004.04
2019-05-25T00:57:16.730Z,1004.04
2019-05-25T00:58:16.714Z,1004.06
2019-05-25T00:59:16.627Z,1004.02
2019-05-25T01:00:16.575Z,1004.04
2019-05-25T01:01:16.538Z,1004.06
2019-05-25T01:02:16.472Z,1004.05
2019-05-25T01:03:16.498Z,1004.08
2019-05-25T01:04:16.370Z,1004.05
2019-05-25T01:05:16.321Z,1004.10
2019-05-25T01:06:16.270Z,1004.07
2019-05-25T01:07:16.219Z,1004.07
2019-05-25T01:08:16.198Z,1004.11
2019-05-25T01:09:16.139Z,1004.11
2019-05-25T01:10:16.067Z,1004.08
2019-05-25T01:11:16.009Z,1004.12
2019-05-25T01:12:15.967Z,1004.10
2019-05-25T01:13:15.905Z,1004.11
2019-05-25T01:14:15.886Z,1004.08
2019-05-25T01:15:15.816Z,1004.09
2019-05-25T01:16:15.770Z,1004.11
2019-05-25T01:17:15.704Z,1004.06
2019-05-25T01:18:15.654Z,1004.13
2019-05-25T01:19:15.629Z,1004.11
2019-05-25T01:20:15.550Z,1004.13
2019-05-25T01:21:15.499Z,1004.09
2019-05-25T01:22:15.448Z,1004.13
2019-05-25T01:23:15.406Z,1004.08
2019-05-25T01:24:15.383Z,1004.12
2019-05-25T01:25:15.298Z,1004.13
2019-05-25T01:26:15.248Z,1004.17
2019-05-25T01:27:15.193Z,1004.14
2019-05-25T01:28:15.139Z,1004.19
2019-05-25T01:29:15.121Z,1004.16
2019-05-25T01:30:15.038Z,1004.17
2019-05-25T01:31:15.000Z,1004.19
2019-05-25T01:32:14.939Z,1004.18
2019-05-25T01:33:14.883Z,1004.17
2019-05-25T01:34:14.855Z,1004.18
2019-05-25T01:35:14.780Z,1004.21
2019-05-25T01:36:14.729Z,1004.18
2019-05-25T01:37:14.682Z,1004.19
2019-05-25T01:38:14.622Z,1004.18
2019-05-25T01:39:14.603Z,1004.18
2019-05-25T01:40:14.523Z,1004.21
2019-05-25T01:41:14.475Z,1004.20
2019-05-25T01:42:14.420Z,1004.26
2019-05-25T01:43:14.371Z,1004.25
2019-05-25T01:44:14.343Z,1004.23
2019-05-25T01:45:14.266Z,1004.26
2019-05-25T01:46:14.215Z,1004.27
2019-05-25T01:47:14.161Z,1004.21
2019-05-25T01:48:14.114Z,1004.23
2019-05-25T01:49:14.087Z,1004.21
2019-05-25T01:50:14.015Z,1004.21
2019-05-25T01:51:13.958Z,1004.18
2019-05-25T01:52:13.906Z,1004.23
2019-05-25T01:53:13.902Z,1004.20
2019-05-25T01:54:13.827Z,1004.20
2019-05-25T01:55:13.756Z,1004.19
2019-05-25T01:56:13.700Z,1004.19
2019-05-25T01:57:13.651Z,1004.17
2019-05-25T01:58:13.599Z,1004.14
2019-05-25T01:59:13.571Z,1004.16
2019-05-25T02:00:13.495Z,1004.15
2019-05-25T02:01:13.444Z,1004.15
2019-05-25T02:02:13.397Z,1004.18
2019-05-25T02:03:13.341Z,1004.16
2019-05-25T02:04:13.325Z,1004.16
2019-05-25T02:05:13.308Z,1004.17
2019-05-25T02:06:13.180Z,1004.20
2019-05-25T02:07:13.131Z,1004.21
2019-05-25T02:08:13.085Z,1004.24
2019-05-25T02:09:13.058Z,1004.21
2019-05-25T02:10:12.987Z,1004.24
2019-05-25T02:11:12.923Z,1004.24
2019-05-25T02:12:12.879Z,1004.24
2019-05-25T02:13:12.823Z,1004.20
2019-05-25T02:14:12.796Z,1004.14
2019-05-25T02:15:12.721Z,1004.17
2019-05-25T02:16:12.669Z,1004.17
2019-05-25T02:17:12.618Z,1004.18
2019-05-25T02:18:12.567Z,1004.16
2019-05-25T02:19:12.538Z,1004.19
2019-05-25T02:20:12.465Z,1004.20
2019-05-25T02:21:12.420Z,1004.22
2019-05-25T02:22:12.361Z,1004.22
2019-05-25T02:23:12.307Z,1004.23
2019-05-25T02:24:12.315Z,1004.27
2019-05-25T02:25:18.248Z,1004.28
2019-05-25T02:26:12.154Z,1004.31
2019-05-25T02:27:12.106Z,1004.28
2019-05-25T02:28:12.049Z,1004.28
2019-05-25T02:29:11.997Z,1004.29
2019-05-25T02:30:11.970Z,1004.30
2019-05-25T02:31:11.890Z,1004.32
2019-05-25T02:32:11.839Z,1004.31
2019-05-25T02:33:11.789Z,1004.31
2019-05-25T02:34:11.738Z,1004.29
2019-05-25T02:35:11.705Z,1004.36
2019-05-25T02:36:11.629Z,1004.35
2019-05-25T02:37:11.587Z,1004.34
2019-05-25T02:38:11.531Z,1004.33
2019-05-25T02:39:11.476Z,1004.32
2019-05-25T02:40:11.451Z,1004.31
2019-05-25T02:41:11.379Z,1004.27
2019-05-25T02:42:11.321Z,1004.31
2019-05-25T02:43:11.270Z,1004.33
2019-05-25T02:44:11.219Z,1004.35
2019-05-25T02:45:11.188Z,1004.40
2019-05-25T02:46:11.117Z,1004.45
2019-05-25T02:47:11.067Z,1004.45
2019-05-25T02:48:11.010Z,1004.43
2019-05-25T02:49:10.962Z,1004.47
2019-05-25T02:50:10.934Z,1004.46
2019-05-25T02:51:10.859Z,1004.49
2019-05-25T02:52:10.799Z,1004.51
2019-05-25T02:53:10.752Z,1004.49
2019-05-25T02:54:10.700Z,1004.52
2019-05-25T02:55:10.670Z,1004.53
2019-05-25T02:56:10.598Z,1004.50
2019-05-25T02:57:10.545Z,1004.53
2019-05-25T02:58:10.492Z,1004.53
2019-05-25T02:59:10.437Z,1004.54
2019-05-25T03:00:10.411Z,1004.55
2019-05-25T03:01:10.338Z,1004.55
2019-05-25T03:02:10.283Z,1004.55
2019-05-25T03:03:10.234Z,1004.58
2019-05-25T03:04:10.179Z,1004.58
2019-05-25T03:05:10.153Z,1004.60
2019-05-25T03:06:10.176Z,1004.52
2019-05-25T03:07:10.024Z,1004.55
2019-05-25T03:08:09.970Z,1004.58
2019-05-25T03:09:09.923Z,1004.56
2019-05-25T03:10:09.894Z,1004.58
2019-05-25T03:11:09.818Z,1004.60
2019-05-25T03:12:09.767Z,1004.56
2019-05-25T03:13:09.714Z,1004.59
2019-05-25T03:14:09.658Z,1004.56
2019-05-25T03:15:09.633Z,1004.59
2019-05-25T03:16:09.555Z,1004.55
2019-05-25T03:17:09.507Z,1004.57
2019-05-25T03:18:09.452Z,1004.59
2019-05-25T03:19:09.409Z,1004.59
2019-05-25T03:20:09.374Z,1004.62
2019-05-25T03:21:09.303Z,1004.62
2019-05-25T03:22:09.246Z,1004.65
2019-05-25T03:23:09.202Z,1004.60
2019-05-25T03:24:09.145Z,1004.61
2019-05-25T03:25:09.114Z,1004.61
2019-05-25T03:26:09.036Z,1004.66
2019-05-25T03:27:08.980Z,1004.68
2019-05-25T03:28:08.937Z,1004.74
2019-05-25T03:29:08.878Z,1004.67
2019-05-25T03:30:08.888Z,1004.69
2019-05-25T03:31:08.777Z,1004.71
2019-05-25T03:32:08.721Z,1004.73
2019-05-25T03:33:08.671Z,1004.76
2019-05-25T03:34:08.625Z,1004.79
2019-05-25T03:35:08.587Z,1004.76
2019-05-25T03:36:08.526Z,1004.76
2019-05-25T03:37:08.470Z,1004.78
2019-05-25T03:38:08.425Z,1004.77
2019-05-25T03:39:08.357Z,1004.77
2019-05-25T03:40:08.330Z,1004.77
2019-05-25T03:41:08.259Z,1004.75
2019-05-25T03:42:08.203Z,1004.78
2019-05-25T03:43:08.155Z,1004.81
2019-05-25T03:44:08.100Z,1004.77
2019-05-25T03:45:08.076Z,1004.80
2019-05-25T03:46:07.996Z,1004.78
2019-05-25T03:47:07.942Z,1004.79
2019-05-25T03:48:07.895Z,1004.75
2019-05-25T03:49:07.852Z,1004.79
2019-05-25T03:50:07.816Z,1004.78
2019-05-25T03:51:07.737Z,1004.78
2019-05-25T03:52:07.682Z,1004.82
2019-05-25T03:53:07.630Z,1004.82
2019-05-25T03:54:07.578Z,1004.81
2019-05-25T03:55:07.566Z,1004.84
2019-05-25T03:56:07.479Z,1004.81
2019-05-25T03:57:07.421Z,1004.84
2019-05-25T03:58:07.375Z,1004.78
2019-05-25T03:59:07.323Z,1004.78
2019-05-25T04:00:07.269Z,1004.80
2019-05-25T04:01:07.248Z,1004.81
2019-05-25T04:02:07.160Z,1004.77
2019-05-25T04:03:07.112Z,1004.80
2019-05-25T04:04:07.058Z,1004.78
2019-05-25T04:05:07.012Z,1004.79
2019-05-25T04:06:06.979Z,1004.79
2019-05-25T04:07:06.903Z,1004.82
2019-05-25T04:08:06.852Z,1004.82
2019-05-25T04:09:06.800Z,1004.85
2019-05-25T04:10:06.747Z,1004.85
2019-05-25T04:11:06.717Z,1004.87
2019-05-25T04:12:06.639Z,1004.87
2019-05-25T04:13:06.592Z,1004.88
2019-05-25T04:14:06.537Z,1004.88
2019-05-25T04:15:06.493Z,1004.88
2019-05-25T04:16:06.460Z,1004.86
2019-05-25T04:17:06.387Z,1004.86
2019-05-25T04:18:06.334Z,1004.87
2019-05-25T04:19:06.281Z,1004.91
2019-05-25T04:20:06.231Z,1004.91
2019-05-25T04:21:06.212Z,1004.90
2019-05-25T04:22:06.125Z,1004.89
2019-05-25T04:23:06.075Z,1004.89
2019-05-25T04:24:06.026Z,1004.91
2019-05-25T04:25:05.974Z,1004.89
2019-05-25T04:26:21.537Z,1004.95
2019-05-25T04:27:05.867Z,1004.93
2019-05-25T04:28:05.818Z,1004.96
2019-05-25T04:29:05.765Z,1004.97
2019-05-25T04:30:05.713Z,1005.02
2019-05-25T04:31:05.686Z,1005.02
2019-05-25T04:32:05.615Z,1005.03
2019-05-25T04:33:05.563Z,1005.09
2019-05-25T04:34:05.543Z,1005.03
2019-05-25T04:35:05.458Z,1005.04
2019-05-25T04:36:05.426Z,1005.02
2019-05-25T04:37:05.352Z,1005.05
2019-05-25T04:38:05.303Z,1005.02
2019-05-25T04:39:05.250Z,1005.05
2019-05-25T04:40:05.199Z,1005.09
2019-05-25T04:41:05.173Z,1005.11
2019-05-25T04:42:05.102Z,1005.12
2019-05-25T04:43:05.038Z,1005.11
2019-05-25T04:44:04.993Z,1005.12
2019-05-25T04:45:04.943Z,1005.12
2019-05-25T04:46:04.907Z,1005.14
2019-05-25T04:47:04.833Z,1005.13
2019-05-25T04:48:04.781Z,1005.09
2019-05-25T04:49:04.752Z,1005.08
2019-05-25T04:50:04.689Z,1005.10
2019-05-25T04:51:04.655Z,1005.11
2019-05-25T04:52:04.583Z,1005.09
2019-05-25T04:53:04.540Z,1005.12
2019-05-25T04:54:04.474Z,1005.09
2019-05-25T04:55:04.422Z,1005.09
2019-05-25T04:56:04.398Z,1005.10
2019-05-25T04:57:04.593Z,1005.10
2019-05-25T04:58:04.273Z,1005.08
2019-05-25T04:59:04.220Z,1005.14
2019-05-25T05:00:04.171Z,1005.11
2019-05-25T05:01:04.169Z,1005.17
2019-05-25T05:02:04.063Z,1005.17
2019-05-25T05:03:04.023Z,1005.16
2019-05-25T05:04:03.959Z,1005.18
2019-05-25T05:05:03.916Z,1005.19
2019-05-25T05:06:03.884Z,1005.19
2019-05-25T05:07:03.810Z,1005.18
2019-05-25T05:08:03.759Z,1005.15
2019-05-25T05:09:03.706Z,1005.17
2019-05-25T05:10:03.658Z,1005.15
2019-05-25T05:11:03.634Z,1005.16
2019-05-25T05:12:03.552Z,1005.18
2019-05-25T05:13:03.509Z,1005.14
2019-05-25T05:14:03.453Z,1005.16
2019-05-25T05:15:03.411Z,1005.19
2019-05-25T05:16:03.394Z,1005.20
2019-05-25T05:17:03.320Z,1005.23
2019-05-25T05:18:03.256Z,1005.24
2019-05-25T05:19:03.206Z,1005.22
2019-05-25T05:20:03.154Z,1005.21
2019-05-25T05:21:03.099Z,1005.25
2019-05-25T05:22:05.789Z,1005.24
2019-05-25T05:23:02.999Z,1005.24
2019-05-25T05:24:02.936Z,1005.22
2019-05-25T05:25:02.892Z,1005.22
2019-05-25T05:26:02.832Z,1005.23
2019-05-25T05:27:02.820Z,1005.24
2019-05-25T05:28:02.738Z,1005.27
2019-05-25T05:29:02.687Z,1005.24
2019-05-25T05:30:02.635Z,1005.30
2019-05-25T05:31:02.585Z,1005.29
2019-05-25T05:32:02.560Z,1005.26
2019-05-25T05:33:02.483Z,1005.25
2019-05-25T05:34:02.433Z,1005.23
2019-05-25T05:35:02.380Z,1005.26
2019-05-25T05:36:02.331Z,1005.26
2019-05-25T05:37:02.341Z,1005.25
2019-05-25T05:38:02.230Z,1005.25
2019-05-25T05:39:02.173Z,1005.25
2019-05-25T05:40:02.175Z,1005.25
2019-05-25T05:41:02.075Z,1005.25
2019-05-25T05:42:02.058Z,1005.25
2019-05-25T05:43:01.973Z,1005.25
2019-05-25T05:44:01.929Z,1005.27
2019-05-25T05:45:01.874Z,1005.30
2019-05-25T05:46:01.822Z,1005.31
2019-05-25T05:47:01.795Z,1005.32
2019-05-25T05:48:01.717Z,1005.31
2019-05-25T05:49:01.672Z,1005.34
2019-05-25T05:50:01.616Z,1005.35
2019-05-25T05:51:01.568Z,1005.34
2019-05-25T05:52:01.538Z,1005.35
2019-05-25T05:53:01.463Z,1005.32
2019-05-25T05:54:01.414Z,1005.34
2019-05-25T05:55:01.365Z,1005.32
2019-05-25T05:56:01.303Z,1005.34
2019-05-25T05:57:11.686Z,1005.31
2019-05-25T05:58:01.208Z,1005.32
2019-05-25T05:59:01.159Z,1005.35
2019-05-25T06:00:01.114Z,1005.36
2019-05-25T06:01:01.065Z,1005.36
2019-05-25T06:02:01.124Z,1005.36
2019-05-25T06:03:00.953Z,1005.40
2019-05-25T06:04:00.904Z,1005.38
2019-05-25T06:05:00.857Z,1005.38
2019-05-25T06:06:00.808Z,1005.35
2019-05-25T06:07:00.801Z,1005.41
2019-05-25T06:08:00.746Z,1005.40
2019-05-25T06:09:00.654Z,1005.36
2019-05-25T06:10:00.600Z,1005.37
2019-05-25T06:11:00.549Z,1005.37
2019-05-25T06:12:00.531Z,1005.38
2019-05-25T06:13:00.450Z,1005.40
2019-05-25T06:14:00.398Z,1005.40
2019-05-25T06:15:00.351Z,1005.42
2019-05-25T06:16:00.300Z,1005.37
2019-05-25T06:17:00.272Z,1005.43
2019-05-25T06:18:00.202Z,1005.41
2019-05-25T06:19:00.145Z,1005.43
2019-05-25T06:20:00.094Z,1005.47
2019-05-25T06:21:00.061Z,1005.46
2019-05-25T06:22:00.075Z,1005.49
2019-05-25T06:22:59.942Z,1005.48
2019-05-25T06:23:59.893Z,1005.49
2019-05-25T06:24:59.844Z,1005.50
2019-05-25T06:25:59.789Z,1005.49
2019-05-25T06:26:59.774Z,1005.49
2019-05-25T06:27:59.689Z,1005.53
2019-05-25T06:28:59.639Z,1005.52
2019-05-25T06:29:59.585Z,1005.52
2019-05-25T06:30:59.540Z,1005.53
2019-05-25T06:31:59.489Z,1005.52
2019-05-25T06:32:59.470Z,1005.54
2019-05-25T06:33:59.386Z,1005.52
2019-05-25T06:34:59.329Z,1005.54
2019-05-25T06:35:59.285Z,1005.56
2019-05-25T06:36:59.233Z,1005.52
2019-05-25T06:37:59.206Z,1005.53
2019-05-25T06:38:59.132Z,1005.54
2019-05-25T06:39:59.081Z,1005.51
2019-05-25T06:40:59.035Z,1005.54
2019-05-25T06:41:58.984Z,1005.54
2019-05-25T06:42:58.958Z,1005.54
2019-05-25T06:43:58.877Z,1005.53
2019-05-25T06:44:58.826Z,1005.54
2019-05-25T06:45:58.778Z,1005.55
2019-05-25T06:46:58.733Z,1005.56
2019-05-25T06:47:58.701Z,1005.57
2019-05-25T06:48:58.628Z,1005.54
2019-05-25T06:49:58.590Z,1005.54
2019-05-25T06:50:58.518Z,1005.59
2019-05-25T06:51:58.470Z,1005.57
2019-05-25T06:52:58.452Z,1005.56
2019-05-25T06:53:58.375Z,1005.56
2019-05-25T06:54:58.319Z,1005.58
2019-05-25T06:55:58.268Z,1005.59
2019-05-25T06:56:58.229Z,1005.62
2019-05-25T06:57:58.199Z,1005.59
2019-05-25T06:58:58.111Z,1005.60
2019-05-25T06:59:58.072Z,1005.61
2019-05-25T07:00:58.017Z,1005.62
2019-05-25T07:01:57.970Z,1005.62
2019-05-25T07:02:57.940Z,1005.61
2019-05-25T07:03:57.871Z,1005.63
2019-05-25T07:04:57.817Z,1005.65
2019-05-25T07:05:57.791Z,1005.66
2019-05-25T07:06:57.716Z,1005.62
2019-05-25T07:07:57.693Z,1005.64
2019-05-25T07:08:57.614Z,1005.67
2019-05-25T07:09:57.561Z,1005.71
2019-05-25T07:10:57.515Z,1005.72
2019-05-25T07:11:57.467Z,1005.66
2019-05-25T07:12:57.437Z,1005.69
2019-05-25T07:13:57.359Z,1005.71
2019-05-25T07:14:57.310Z,1005.71
2019-05-25T07:15:57.258Z,1005.71
2019-05-25T07:16:57.209Z,1005.73
2019-05-25T07:17:57.182Z,1005.72
2019-05-25T07:18:57.106Z,1005.74
2019-05-25T07:19:57.081Z,1005.72
2019-05-25T07:20:57.005Z,1005.71
2019-05-25T07:21:56.974Z,1005.71
2019-05-25T07:22:56.938Z,1005.73
2019-05-25T07:23:56.856Z,1005.73
2019-05-25T07:24:56.805Z,1005.73
2019-05-25T07:25:56.751Z,1005.74
2019-05-25T07:26:56.714Z,1005.73
2019-05-25T07:27:59.999Z,1005.77
2019-05-25T07:28:56.600Z,1005.78
2019-05-25T07:29:56.549Z,1005.81
2019-05-25T07:30:56.498Z,1005.79
2019-05-25T07:31:56.447Z,1005.83
2019-05-25T07:32:56.425Z,1005.82
2019-05-25T07:33:56.354Z,1005.86
2019-05-25T07:34:56.300Z,1005.84
2019-05-25T07:35:56.241Z,1005.86
2019-05-25T07:36:56.196Z,1005.90
2019-05-25T07:37:56.171Z,1005.85
2019-05-25T07:38:56.095Z,1005.83
2019-05-25T07:39:56.044Z,1005.86
2019-05-25T07:40:55.996Z,1005.88
2019-05-25T07:41:55.946Z,1005.91
2019-05-25T07:42:55.917Z,1005.89
2019-05-25T07:43:55.842Z,1005.91
2019-05-25T07:44:55.793Z,1005.89
2019-05-25T07:45:55.745Z,1005.91
2019-05-25T07:46:55.692Z,1005.90
2019-05-25T07:47:55.677Z,1005.90
2019-05-25T07:48:55.593Z,1005.89
2019-05-25T07:49:55.540Z,1005.90
2019-05-25T07:50:55.487Z,1005.93
2019-05-25T07:51:55.438Z,1005.94
2019-05-25T07:52:55.383Z,1005.93
2019-05-25T07:53:55.360Z,1005.94
2019-05-25T07:54:55.286Z,1005.94
2019-05-25T07:55:55.236Z,1005.95
2019-05-25T07:56:55.185Z,1005.92
2019-05-25T07:57:55.136Z,1005.93
2019-05-25T07:58:55.107Z,1005.95
2019-05-25T07:59:55.032Z,1005.94
2019-05-25T08:00:54.977Z,1005.96
2019-05-25T08:01:54.968Z,1005.93
2019-05-25T08:02:54.914Z,1005.94
2019-05-25T08:03:54.843Z,1005.96
2019-05-25T08:04:54.779Z,1005.98
2019-05-25T08:05:54.733Z,1005.95
2019-05-25T08:06:54.735Z,1005.96
2019-05-25T08:07:54.628Z,1005.96
2019-05-25T08:08:54.609Z,1005.97
2019-05-25T08:09:54.537Z,1005.95
2019-05-25T08:10:54.495Z,1005.97
2019-05-25T08:11:54.443Z,1005.98
2019-05-25T08:12:54.419Z,1005.99
2019-05-25T08:13:54.355Z,1005.99
2019-05-25T08:14:54.273Z,1005.98
2019-05-25T08:15:54.231Z,1005.96
2019-05-25T08:16:54.180Z,1005.96
2019-05-25T08:17:54.129Z,1005.97
2019-05-25T08:18:54.100Z,1006.00
2019-05-25T08:19:54.024Z,1006.00
2019-05-25T08:20:53.977Z,1006.05
2019-05-25T08:21:53.926Z,1005.98
2019-05-25T08:22:53.883Z,1005.96
2019-05-25T08:23:53.856Z,1006.02
2019-05-25T08:24:53.778Z,1006.04
2019-05-25T08:25:53.727Z,1006.03
2019-05-25T08:26:53.674Z,1006.04
2019-05-25T08:27:53.625Z,1006.05
2019-05-25T08:28:53.598Z,1006.03
2019-05-25T08:29:53.526Z,1006.03
2019-05-25T08:30:53.543Z,1006.04
2019-05-25T08:31:53.428Z,1006.05
2019-05-25T08:32:53.382Z,1006.07
2019-05-25T08:33:53.349Z,1006.10
2019-05-25T08:34:53.279Z,1006.07
2019-05-25T08:35:53.226Z,1006.09
2019-05-25T08:36:53.175Z,1006.08
2019-05-25T08:37:53.127Z,1006.12
2019-05-25T08:38:54.915Z,1006.13
2019-05-25T08:39:53.021Z,1006.09
2019-05-25T08:40:53.049Z,1006.12
2019-05-25T08:41:52.927Z,1006.06
2019-05-25T08:42:52.887Z,1006.09
2019-05-25T08:43:52.848Z,1006.08
2019-05-25T08:44:52.778Z,1006.08
2019-05-25T08:45:52.729Z,1006.11
2019-05-25T08:46:55.303Z,1006.05
2019-05-25T08:47:52.630Z,1006.10
2019-05-25T08:48:52.608Z,1006.11
2019-05-25T08:49:52.536Z,1006.11
2019-05-25T08:50:52.474Z,1006.17
2019-05-25T08:51:54.908Z,1006.14
2019-05-25T08:52:52.373Z,1006.15
2019-05-25T08:53:52.354Z,1006.15
2019-05-25T08:54:52.278Z,1006.14
2019-05-25T08:55:52.227Z,1006.15
2019-05-25T08:56:52.180Z,1006.13
2019-05-25T08:57:52.128Z,1006.15
2019-05-25T08:58:55.379Z,1006.12
2019-05-25T08:59:52.030Z,1006.15
2019-05-25T09:00:51.978Z,1006.11
2019-05-25T09:01:51.927Z,1006.16
2019-05-25T09:02:51.875Z,1006.13
2019-05-25T09:03:51.851Z,1006.14
2019-05-25T09:04:51.782Z,1006.15
2019-05-25T09:05:51.733Z,1006.11
2019-05-25T09:06:51.683Z,1006.12
2019-05-25T09:07:51.631Z,1006.11
2019-05-25T09:08:51.619Z,1006.13
2019-05-25T09:09:51.528Z,1006.12
2019-05-25T09:10:51.482Z,1006.14
2019-05-25T09:11:51.433Z,1006.14
2019-05-25T09:12:51.451Z,1006.14
2019-05-25T09:13:51.346Z,1006.18
2019-05-25T09:14:51.362Z,1006.21
2019-05-25T09:15:51.236Z,1006.23
2019-05-25T09:16:51.270Z,1006.17
2019-05-25T09:17:51.358Z,1006.17
2019-05-25T09:18:51.092Z,1006.17
2019-05-25T09:19:51.307Z,1006.14
2019-05-25T09:20:50.987Z,1006.13
2019-05-25T09:22:02.165Z,1006.14
2019-05-25T09:22:50.888Z,1006.14
2019-05-25T09:23:50.855Z,1006.18
2019-05-25T09:24:50.813Z,1006.14
2019-05-25T09:25:50.744Z,1006.18
2019-05-25T09:26:50.694Z,1006.16
2019-05-25T09:27:50.639Z,1006.19
2019-05-25T09:29:03.439Z,1006.21
2019-05-25T09:29:50.564Z,1006.20
2019-05-25T09:30:50.494Z,1006.17
2019-05-25T09:31:50.442Z,1006.15
2019-05-25T09:32:50.550Z,1006.19
2019-05-25T09:33:50.350Z,1006.21
2019-05-25T09:34:50.323Z,1006.26
2019-05-25T09:35:50.252Z,1006.23
2019-05-25T09:36:50.200Z,1006.20
2019-05-25T09:37:50.149Z,1006.20
2019-05-25T09:38:50.100Z,1006.25
2019-05-25T09:39:50.083Z,1006.23
2019-05-25T09:40:49.999Z,1006.26
2019-05-25T09:41:49.945Z,1006.28
2019-05-25T09:42:50.036Z,1006.29
2019-05-25T09:43:49.853Z,1006.36
2019-05-25T09:44:49.825Z,1006.34
2019-05-25T09:45:49.756Z,1006.28
2019-05-25T09:46:49.707Z,1006.26
2019-05-25T09:47:49.658Z,1006.27
2019-05-25T09:48:49.604Z,1006.30
2019-05-25T09:49:49.585Z,1006.32
2019-05-25T09:50:49.509Z,1006.36
2019-05-25T09:51:49.461Z,1006.31
2019-05-25T09:52:49.415Z,1006.27
2019-05-25T09:53:49.363Z,1006.27
2019-05-25T09:54:51.336Z,1006.27
2019-05-25T09:55:49.265Z,1006.28
2019-05-25T09:56:49.259Z,1006.28
2019-05-25T09:57:49.169Z,1006.23
2019-05-25T09:58:49.121Z,1006.27
2019-05-25T09:59:49.090Z,1006.29
2019-05-25T10:00:49.026Z,1006.26
2019-05-25T10:01:48.973Z,1006.24
2019-05-25T10:02:48.946Z,1006.23
2019-05-25T10:03:48.875Z,1006.21
2019-05-25T10:04:48.864Z,1006.29
2019-05-25T10:05:48.779Z,1006.29
2019-05-25T10:06:48.734Z,1006.31
2019-05-25T10:07:48.685Z,1006.23
2019-05-25T10:08:48.642Z,1006.27
2019-05-25T10:09:48.618Z,1006.22
2019-05-25T10:10:48.541Z,1006.22
2019-05-25T10:11:48.489Z,1006.22
2019-05-25T10:12:48.452Z,1006.29
2019-05-25T10:13:48.396Z,1006.28
2019-05-25T10:14:48.369Z,1006.37
2019-05-25T10:15:48.291Z,1006.38
2019-05-25T10:16:48.242Z,1006.35
2019-05-25T10:17:48.195Z,1006.29
2019-05-25T10:18:48.148Z,1006.39
2019-05-25T10:19:48.117Z,1006.34
2019-05-25T10:20:48.045Z,1006.38
2019-05-25T10:21:48.001Z,1006.44
2019-05-25T10:22:47.950Z,1006.42
2019-05-25T10:23:47.895Z,1006.39
2019-05-25T10:24:47.881Z,1006.44
2019-05-25T10:25:47.802Z,1006.44
2019-05-25T10:26:47.759Z,1006.44
2019-05-25T10:27:47.706Z,1006.38
2019-05-25T10:28:47.660Z,1006.36
2019-05-25T10:29:47.639Z,1006.33
2019-05-25T10:30:47.560Z,1006.32
2019-05-25T10:31:47.525Z,1006.35
2019-05-25T10:32:47.464Z,1006.34
2019-05-25T10:33:47.419Z,1006.43
2019-05-25T10:34:47.391Z,1006.32
2019-05-25T10:35:47.342Z,1006.34
2019-05-25T10:36:47.271Z,1006.32
2019-05-25T10:37:47.234Z,1006.31
2019-05-25T10:38:47.180Z,1006.40
2019-05-25T10:39:47.131Z,1006.33
2019-05-25T10:40:47.102Z,1006.32
2019-05-25T10:41:47.031Z,1006.26
2019-05-25T10:42:46.982Z,1006.28
2019-05-25T10:43:46.936Z,1006.26
2019-05-25T10:44:46.893Z,1006.35
2019-05-25T10:45:46.864Z,1006.36
2019-05-25T10:46:46.795Z,1006.35
2019-05-25T10:47:46.742Z,1006.30
2019-05-25T10:48:46.703Z,1006.32
2019-05-25T10:49:46.644Z,1006.32
2019-05-25T10:50:46.622Z,1006.28
2019-05-25T10:51:46.553Z,1006.29
2019-05-25T10:52:46.507Z,1006.29
2019-05-25T10:53:46.449Z,1006.27
2019-05-25T10:54:46.411Z,1006.26
2019-05-25T10:55:46.382Z,1006.23
2019-05-25T10:56:46.313Z,1006.30
2019-05-25T10:57:46.269Z,1006.27
2019-05-25T10:58:46.219Z,1006.26
2019-05-25T10:59:52.788Z,1006.30
2019-05-25T11:00:46.146Z,1006.25
2019-05-25T11:01:46.077Z,1006.22
2019-05-25T11:02:46.031Z,1006.24
2019-05-25T11:03:45.980Z,1006.16
2019-05-25T11:04:45.929Z,1006.20
2019-05-25T11:05:45.904Z,1006.23
2019-05-25T11:06:45.837Z,1006.16
2019-05-25T11:07:45.791Z,1006.14
2019-05-25T11:08:45.741Z,1006.16
2019-05-25T11:09:45.692Z,1006.17
2019-05-25T11:10:45.669Z,1006.18
2019-05-25T11:11:45.597Z,1006.16
2019-05-25T11:12:45.549Z,1006.19
2019-05-25T11:13:45.500Z,1006.13
2019-05-25T11:14:45.455Z,1006.12
2019-05-25T11:15:45.434Z,1006.14
2019-05-25T11:16:45.360Z,1006.13
2019-05-25T11:17:45.316Z,1006.08
2019-05-25T11:18:45.264Z,1006.09
2019-05-25T11:19:45.213Z,1006.08
2019-05-25T11:20:45.188Z,1006.08
2019-05-25T11:21:45.114Z,1006.11
2019-05-25T11:22:45.075Z,1006.06
2019-05-25T11:23:45.020Z,1006.11
2019-05-25T11:24:44.972Z,1006.12
2019-05-25T11:25:44.947Z,1006.14
2019-05-25T11:26:44.878Z,1006.13
2019-05-25T11:27:44.832Z,1006.10
2019-05-25T11:28:44.790Z,1006.08
2019-05-25T11:29:44.736Z,1006.02
2019-05-25T11:30:44.715Z,1006.05
2019-05-25T11:31:54.040Z,1006.05
2019-05-25T11:32:44.590Z,1006.06
2019-05-25T11:33:44.544Z,1006.04
2019-05-25T11:34:44.499Z,1006.08
2019-05-25T11:35:44.477Z,1006.06
2019-05-25T11:36:44.400Z,1006.07
2019-05-25T11:37:44.360Z,1006.10
2019-05-25T11:38:44.319Z,1006.04
2019-05-25T11:39:44.258Z,1006.04
2019-05-25T11:40:44.231Z,1006.06
2019-05-25T11:41:44.165Z,1006.04
2019-05-25T11:42:44.119Z,1006.04
2019-05-25T11:43:44.069Z,1005.99
2019-05-25T11:44:44.025Z,1005.98
2019-05-25T11:45:45.463Z,1006.01
2019-05-25T11:46:43.927Z,1005.99
2019-05-25T11:47:43.871Z,1005.92
2019-05-25T11:48:43.837Z,1005.99
2019-05-25T11:49:43.780Z,1005.97
2019-05-25T11:50:43.761Z,1006.02
2019-05-25T11:51:43.713Z,1005.96
2019-05-25T11:52:43.665Z,1005.90
2019-05-25T11:53:43.595Z,1005.95
2019-05-25T11:54:43.542Z,1005.96
2019-05-25T11:55:43.511Z,1005.96
2019-05-25T11:56:43.469Z,1005.97
2019-05-25T11:57:43.402Z,1005.95
2019-05-25T11:58:47.484Z,1005.97
2019-05-25T11:59:43.303Z,1005.90
2019-05-25T12:00:43.253Z,1005.91
2019-05-25T12:01:43.238Z,1005.89
2019-05-25T12:02:43.161Z,1005.86
2019-05-25T12:03:43.116Z,1005.84
2019-05-25T12:04:43.066Z,1005.87